Terminal Aerodrome Forecast
Issued by NWS

Home | Current Version | Previous Version | Text Only | Print | Product List | Glossary On
Versions: 1 2 3 4 5 6 7 8 9 10 11 12 13 14
551
FTUS46 KSEW 271120
TAFOLM
TAF
KOLM 271120Z 2712/2812 20008KT P6SM SCT025 BKN040
      TEMPO 2712/2716 SCT015 OVC025
     FM271800 22008KT P6SM VCSH SCT020 OVC030
     FM272200 24010KT P6SM -SHRA BKN035
     FM280200 26008KT P6SM VCSH BKN030
     FM280600 20006KT P6SM OVC025=

USA.gov is the U.S. government's official web portal to all federal, state and local government web resources and services.